Ikermiuarsuk

KL  EN  DA
ASIAQ
Weather Now GREENLAND SURVEY
Updated [WGT/WGST] Temperature [°C] Wind [m/s] Air pressure [hPa] Relative humidity [%] Precipitation [mm]
Present Wind chill Speed Max
27.03 13:00-6,2-15,09,3 ⇓12,4102044n/a
27.03 12:00-6,7-15,69,3 ⇓11,8102151n/a
27.03 11:00-6,9-15,17,7 ⇖10,8102152n/a
27.03 10:00-7,7-16,27,7 ⇓9,8102251n/a
27.03 09:00-8,5-16,97,2 ⇓9,3102252n/a
27.03 08:00-8,0-17,910,8 ⇓14,4102249n/a
27.03 07:00-8,6-18,911,3 ⇓13,9102354n/a
27.03 06:00-8,9-18,38,8 ⇓11,8102357n/a
27.03 05:00-8,9-17,57,2 ⇓9,3102357n/a
27.03 04:00-8,9-16,96,2 ⇓7,2102456n/a
27.03 03:00-8,7-16,66,2 ⇓8,8102456n/a
27.03 02:00-9,1-17,77,2 ⇓8,2102455n/a
27.03 01:00-8,4-17,38,2 ⇓10,8102558n/a
27.03 00:00-8,1-17,910,3 ⇖12,4102559n/a
26.03 23:00-8,1-17,28,8 ⇓11,3102665n/a
26.03 22:00-8,1-17,28,8 ⇓10,3102669n/a
26.03 21:00-7,8-17,19,3 ⇒10,8102665n/a
26.03 20:00-7,3-16,28,8 ⇗10,3102663n/a
26.03 19:00-6,4-14,27,2 ⇗9,8102656n/a
26.03 18:00-6,3-14,47,7 ⇓10,3102564n/a
26.03 17:00-6,1-14,17,7 ⇓9,3102564n/a
26.03 16:00-5,6-12,76,2 ⇓8,2102559n/a
26.03 15:00-5,7-13,88,2 ⇗9,8102555n/a
26.03 14:00-5,6-13,27,2 ⇓8,8102658n/a
26.03 13:00-5,7-12,86,2 ⇓7,7102654n/a
Position: (61.936389,-42.067778)

[Back]